Time;durP1;ratioP1;P1;durP2;ratioP2;P2;SDS_P1;SDS_P2;PMS_P1;PMS_P2;Temp;Humidity;BMP_temperature;BMP_pressure;BME280_temperature;BME280_humidity;BME280_pressure;Samples;Min_cycle;Max_cycle;Signal;HPM_P1;HPM_P2
2023/09/05 00:01:52;;;;;;;2.42;0.88;;;;;;;17.41;73.24;101733.63;5000739;28;20077;-71
2023/09/05 00:04:19;;;;;;;2.15;0.88;;;;;;;17.41;73.21;101737.13;5000496;28;20068;-72
2023/09/05 00:06:47;;;;;;;3.85;0.98;;;;;;;17.39;73.27;101740.72;5000323;28;20045;-71
2023/09/05 00:09:14;;;;;;;3.92;0.73;;;;;;;17.38;73.26;101745.16;4998814;28;20105;-72
2023/09/05 00:11:42;;;;;;;1.95;0.70;;;;;;;17.37;73.18;101742.56;5002943;28;20053;-71
2023/09/05 00:14:10;;;;;;;2.35;0.80;;;;;;;17.33;73.07;101743.56;4998821;28;20046;-72
2023/09/05 00:16:38;;;;;;;4.95;1.10;;;;;;;17.33;73.25;101741.78;5002263;28;20108;-72
2023/09/05 00:19:05;;;;;;;3.17;0.70;;;;;;;17.31;73.20;101748.91;4994653;28;20050;-71
2023/09/05 00:21:32;;;;;;;2.72;0.80;;;;;;;17.30;73.21;101748.06;5002535;28;20606;-71
2023/09/05 00:24:31;;;;;;;4.13;1.25;;;;;;;17.28;73.09;101747.22;4997562;28;20050;-70
2023/09/05 00:27:00;;;;;;;3.58;1.00;;;;;;;17.27;73.07;101734.91;5000741;28;20070;-70
2023/09/05 00:29:30;;;;;;;3.55;0.73;;;;;;;17.26;73.23;101734.97;4997421;28;20050;-70
2023/09/05 00:31:59;;;;;;;5.03;0.80;;;;;;;17.24;72.88;101737.66;4996521;28;20049;-70
2023/09/05 00:34:27;;;;;;;5.60;2.15;;;;;;;17.23;72.82;101733.28;5000741;28;20442;-70
2023/09/05 00:36:54;;;;;;;2.70;0.82;;;;;;;17.22;72.99;101730.72;5002154;28;20181;-70
2023/09/05 00:39:21;;;;;;;4.25;0.70;;;;;;;17.20;72.73;101736.03;5000762;28;20050;-70
2023/09/05 00:41:48;;;;;;;5.90;0.80;;;;;;;17.18;72.99;101727.28;5000141;28;20042;-70
2023/09/05 00:44:17;;;;;;;4.88;1.02;;;;;;;17.17;72.84;101716.78;5002428;28;20050;-70
2023/09/05 00:46:46;;;;;;;2.88;0.50;;;;;;;17.14;72.73;101717.75;5001605;28;20041;-70
2023/09/05 00:49:15;;;;;;;3.35;0.90;;;;;;;17.09;72.69;101719.66;5000189;28;20537;-70
2023/09/05 00:51:45;;;;;;;3.00;0.70;;;;;;;17.06;72.66;101717.97;4999999;28;20931;-70
2023/09/05 00:54:12;;;;;;;3.67;0.68;;;;;;;17.07;72.98;101722.31;4998932;28;20044;-70
2023/09/05 00:56:40;;;;;;;1.67;0.60;;;;;;;17.04;73.18;101717.13;5003698;28;20054;-72
2023/09/05 00:59:07;;;;;;;4.47;0.70;;;;;;;17.02;72.97;101715.50;4999299;28;20050;-70
2023/09/05 01:01:35;;;;;;;3.00;0.80;;;;;;;17.01;72.97;101711.09;5000361;28;20049;-70
2023/09/05 01:04:02;;;;;;;2.67;0.70;;;;;;;17.00;72.86;101710.25;5001729;28;20050;-75
2023/09/05 01:06:37;;;;;;;2.25;0.73;;;;;;;16.99;72.66;101710.28;5000833;28;20057;-74
2023/09/05 01:09:14;;;;;;;1.67;0.70;;;;;;;16.95;72.67;101712.16;5001491;28;20061;-73
2023/09/05 01:11:41;;;;;;;5.28;0.90;;;;;;;16.95;72.84;101722.69;4999727;28;20073;-74
2023/09/05 01:14:08;;;;;;;1.95;0.60;;;;;;;16.93;72.96;101724.50;4998719;28;20065;-74
2023/09/05 01:16:45;;;;;;;4.70;1.05;;;;;;;16.93;72.92;101721.88;4997741;28;20057;-73
2023/09/05 01:19:15;;;;;;;2.97;0.70;;;;;;;16.91;72.85;101714.94;4998147;28;20058;-73
2023/09/05 01:21:51;;;;;;;6.47;0.90;;;;;;;16.91;72.76;101707.03;4995341;28;20050;-74
2023/09/05 01:24:21;;;;;;;3.15;0.70;;;;;;;16.90;72.78;101713.19;4999092;28;20053;-74
2023/09/05 01:26:49;;;;;;;2.20;0.55;;;;;;;16.88;72.68;101700.06;4995329;28;20492;-73
2023/09/05 01:29:18;;;;;;;1.83;0.50;;;;;;;16.86;72.82;101713.28;5000531;28;20096;-73
2023/09/05 01:31:46;;;;;;;6.40;0.65;;;;;;;16.85;72.80;101713.34;5000039;28;20501;-73
2023/09/05 01:34:13;;;;;;;2.58;0.80;;;;;;;16.83;72.82;101702.81;5002107;28;20049;-70
2023/09/05 01:36:39;;;;;;;2.80;0.60;;;;;;;16.81;72.95;101709.91;5001746;28;20049;-70
2023/09/05 01:39:07;;;;;;;4.07;0.70;;;;;;;16.80;72.77;101702.91;5002020;28;20042;-71
2023/09/05 01:41:35;;;;;;;3.63;0.50;;;;;;;16.77;72.69;101708.28;5002546;28;20046;-70
2023/09/05 01:44:02;;;;;;;5.05;0.70;;;;;;;16.76;72.61;101703.94;5002696;28;20050;-70
2023/09/05 01:46:29;;;;;;;2.30;0.57;;;;;;;16.76;72.59;101700.38;5000208;28;20059;-70
2023/09/05 01:48:55;;;;;;;1.55;0.60;;;;;;;16.74;72.69;101711.00;5002641;28;20052;-71
2023/09/05 01:51:22;;;;;;;2.75;0.57;;;;;;;16.73;72.69;101717.16;5001596;28;20059;-70
2023/09/05 01:53:52;;;;;;;2.92;0.50;;;;;;;16.72;72.56;101714.56;5001151;28;20043;-70
2023/09/05 01:56:19;;;;;;;1.38;0.50;;;;;;;16.61;72.54;101705.19;5001114;28;20046;-70
2023/09/05 01:58:47;;;;;;;1.13;0.52;;;;;;;16.68;72.50;101718.19;4997617;28;20050;-70
2023/09/05 02:01:14;;;;;;;4.40;0.75;;;;;;;16.66;72.52;101715.63;5003813;28;20057;-70
2023/09/05 02:03:40;;;;;;;0.63;0.60;;;;;;;16.59;72.47;101708.78;5003996;28;20080;-70
2023/09/05 02:06:07;;;;;;;3.78;0.60;;;;;;;16.62;72.53;101722.75;5001006;28;20050;-70
2023/09/05 02:08:34;;;;;;;2.00;0.70;;;;;;;16.60;72.31;101724.56;5002508;28;20046;-70
2023/09/05 02:11:01;;;;;;;2.63;0.40;;;;;;;16.59;72.29;101729.88;4987524;28;20763;-70
2023/09/05 02:13:29;;;;;;;2.45;0.60;;;;;;;16.58;72.50;101733.44;5002731;28;20050;-74
2023/09/05 02:15:57;;;;;;;3.55;1.20;;;;;;;16.56;72.58;101716.78;4999465;28;20392;-74
2023/09/05 02:18:24;;;;;;;3.05;0.50;;;;;;;16.52;72.22;101728.34;5002890;28;20511;-74
2023/09/05 02:20:51;;;;;;;3.42;0.50;;;;;;;16.49;72.21;101713.47;5002736;28;20047;-75
2023/09/05 02:23:18;;;;;;;3.72;0.70;;;;;;;16.49;72.36;101728.41;4998192;28;20057;-74
2023/09/05 02:25:44;;;;;;;5.75;0.60;;;;;;;16.47;72.51;101714.41;5004076;28;20050;-74
2023/09/05 02:28:11;;;;;;;2.30;0.60;;;;;;;16.45;72.28;101718.84;4999150;28;20407;-74
2023/09/05 02:30:43;;;;;;;2.80;0.60;;;;;;;16.41;72.32;101711.03;5002222;28;20060;-74
2023/09/05 02:33:11;;;;;;;1.95;0.50;;;;;;;16.41;72.31;101702.25;5001825;28;20492;-75
2023/09/05 02:35:38;;;;;;;3.15;0.50;;;;;;;16.37;72.12;101696.22;4999282;28;20133;-75
2023/09/05 02:38:05;;;;;;;0.98;0.50;;;;;;;16.34;72.18;101688.38;5002818;28;20057;-74
2023/09/05 02:40:32;;;;;;;1.42;0.40;;;;;;;16.33;72.09;101685.78;5000968;28;20050;-74
2023/09/05 02:43:00;;;;;;;9.43;1.15;;;;;;;16.30;72.38;101685.88;5000710;28;20046;-73
2023/09/05 02:45:27;;;;;;;3.30;1.00;;;;;;;16.25;72.35;101683.38;5000960;28;20050;-74
2023/09/05 02:47:54;;;;;;;2.65;0.40;;;;;;;16.25;72.26;101678.09;5003660;28;20046;-74
2023/09/05 02:50:23;;;;;;;2.20;0.60;;;;;;;16.22;72.32;101679.94;5001745;28;20435;-74
2023/09/05 02:52:49;;;;;;;4.28;0.50;;;;;;;16.19;72.32;101686.16;5002516;28;20046;-73
2023/09/05 02:55:16;;;;;;;1.10;0.52;;;;;;;16.16;72.48;101673.06;4996738;28;20496;-74
2023/09/05 02:57:43;;;;;;;6.32;1.08;;;;;;;16.15;72.51;101668.72;5006247;28;20043;-74
2023/09/05 03:00:11;;;;;;;2.13;0.50;;;;;;;16.12;72.51;101667.00;5003145;28;20474;-73
2023/09/05 03:02:40;;;;;;;3.45;0.60;;;;;;;16.11;72.61;101667.94;5001998;28;20065;-73
2023/09/05 03:05:08;;;;;;;1.52;0.50;;;;;;;16.09;72.54;101661.84;5002023;28;20410;-74
2023/09/05 03:07:36;;;;;;;1.50;0.50;;;;;;;16.07;72.73;101666.28;5001657;28;20054;-73
2023/09/05 03:10:04;;;;;;;3.08;0.65;;;;;;;16.06;72.60;101667.19;4995977;28;20046;-74
2023/09/05 03:12:31;;;;;;;4.93;0.50;;;;;;;16.05;72.79;101664.59;5002512;28;20046;-73
2023/09/05 03:14:57;;;;;;;0.50;0.40;;;;;;;16.05;72.65;101664.59;5001500;28;20100;-73
2023/09/05 03:17:24;;;;;;;1.75;0.98;;;;;;;15.97;72.86;101656.91;5001662;28;20050;-73
2023/09/05 03:19:51;;;;;;;2.97;0.60;;;;;;;16.00;72.87;101666.50;4997746;28;20050;-75
2023/09/05 03:22:18;;;;;;;3.03;0.70;;;;;;;15.98;72.63;101663.88;5003070;28;20042;-74
2023/09/05 03:24:46;;;;;;;3.10;0.40;;;;;;;15.96;72.79;101663.91;5000347;28;20069;-75
2023/09/05 03:27:13;;;;;;;2.90;0.50;;;;;;;15.95;72.84;101670.09;5001029;28;20064;-74
2023/09/05 03:29:40;;;;;;;1.95;0.50;;;;;;;15.93;72.90;101666.63;5000833;28;20649;-74
2023/09/05 03:32:06;;;;;;;5.22;0.50;;;;;;;15.91;72.63;101668.47;4988685;28;20057;-75
2023/09/05 03:34:34;;;;;;;1.55;0.50;;;;;;;15.89;72.78;101667.63;5004217;28;20042;-74
2023/09/05 03:37:01;;;;;;;2.53;0.60;;;;;;;15.89;72.87;101666.78;4999917;28;20056;-75
2023/09/05 03:39:28;;;;;;;3.25;0.50;;;;;;;15.86;72.59;101675.63;4999135;28;20053;-74
2023/09/05 03:41:56;;;;;;;5.85;0.85;;;;;;;15.83;72.87;101665.16;5001881;28;20042;-74
2023/09/05 03:44:23;;;;;;;5.22;0.60;;;;;;;15.83;72.78;101665.16;5002761;28;20125;-74
2023/09/05 03:46:49;;;;;;;4.45;0.55;;;;;;;15.81;72.97;101656.44;5002396;28;20049;-74
2023/09/05 03:49:16;;;;;;;4.32;0.50;;;;;;;15.79;73.20;101673.19;4999299;28;20049;-75
2023/09/05 03:51:43;;;;;;;0.98;0.50;;;;;;;15.78;73.07;101666.19;5001083;28;20051;-75
2023/09/05 03:54:12;;;;;;;4.20;0.50;;;;;;;15.76;73.21;101666.22;5001538;28;20399;-70
2023/09/05 03:56:39;;;;;;;3.63;0.60;;;;;;;15.74;73.20;101665.41;4998834;28;20053;-70
2023/09/05 03:59:07;;;;;;;6.30;0.60;;;;;;;15.72;73.01;101654.03;5001704;28;20053;-70
2023/09/05 04:01:34;;;;;;;2.10;0.77;;;;;;;15.70;73.23;101655.84;4999589;28;20060;-70
2023/09/05 04:04:01;;;;;;;2.45;0.75;;;;;;;15.68;73.30;101655.91;4999252;28;20054;-70
2023/09/05 04:06:28;;;;;;;1.08;0.55;;;;;;;15.67;73.50;101650.63;4997098;28;20054;-70
2023/09/05 04:08:55;;;;;;;1.52;0.40;;;;;;;15.65;73.57;101649.78;5002350;28;20495;-70
2023/09/05 04:11:21;;;;;;;1.92;0.60;;;;;;;15.64;73.58;101640.16;4998218;28;20054;-71
2023/09/05 04:13:48;;;;;;;3.42;0.50;;;;;;;15.61;73.70;101635.84;5000136;28;20054;-70
2023/09/05 04:16:17;;;;;;;3.28;0.80;;;;;;;15.61;73.69;101632.34;4996211;28;20057;-71
2023/09/05 04:18:43;;;;;;;1.38;0.68;;;;;;;15.59;73.64;101629.75;4998831;28;20050;-70
2023/09/05 04:21:09;;;;;;;4.03;0.55;;;;;;;15.59;73.74;101626.25;4995099;28;20052;-70
2023/09/05 04:23:36;;;;;;;4.60;0.80;;;;;;;15.58;74.07;101616.63;4998072;28;20050;-70
2023/09/05 04:26:03;;;;;;;1.77;0.65;;;;;;;15.56;73.91;101610.53;4999085;28;20105;-70
2023/09/05 04:28:31;;;;;;;2.70;0.52;;;;;;;15.55;73.82;101611.44;5001384;28;20105;-71
2023/09/05 04:31:02;;;;;;;4.38;0.75;;;;;;;15.55;73.96;101616.72;4997834;28;20042;-70
2023/09/05 04:33:32;;;;;;;2.15;0.60;;;;;;;15.53;73.93;101612.31;4999868;28;20498;-74
2023/09/05 04:35:59;;;;;;;3.83;0.90;;;;;;;15.52;73.75;101613.25;5000373;28;20061;-74
2023/09/05 04:38:25;;;;;;;0.98;0.52;;;;;;;15.52;73.95;101613.25;5003573;28;20054;-74
2023/09/05 04:40:52;;;;;;;3.22;0.70;;;;;;;15.51;73.85;101611.53;4997265;28;20526;-73
2023/09/05 04:43:19;;;;;;;10.77;0.90;;;;;;;15.51;74.15;101602.72;4996982;28;20072;-74
2023/09/05 04:45:53;;;;;;;2.97;0.80;;;;;;;15.49;74.21;101605.41;4994635;28;20426;-74
2023/09/05 04:48:20;;;;;;;5.65;0.70;;;;;;;15.44;74.39;101599.41;4999336;28;20514;-73
2023/09/05 04:50:49;;;;;;;1.92;0.60;;;;;;;15.47;74.33;101603.72;4999353;28;20044;-74
2023/09/05 04:53:15;;;;;;;4.65;0.70;;;;;;;15.47;74.43;101611.63;5000366;28;20041;-74
2023/09/05 04:55:43;;;;;;;2.72;0.80;;;;;;;15.46;74.74;101620.44;4999671;28;20051;-74
2023/09/05 04:58:12;;;;;;;1.90;1.00;;;;;;;15.45;74.67;101618.69;5002680;28;20376;-74
2023/09/05 05:00:39;;;;;;;3.60;1.05;;;;;;;15.44;74.87;101623.09;4998342;28;20058;-74
2023/09/05 05:03:06;;;;;;;2.10;0.75;;;;;;;15.45;75.02;101622.22;5000293;28;20421;-72
2023/09/05 05:05:32;;;;;;;3.80;1.00;;;;;;;15.46;75.09;101625.72;4999547;28;20046;-73
2023/09/05 05:08:01;;;;;;;2.83;0.80;;;;;;;15.45;75.35;101618.69;4996903;28;20053;-73
2023/09/05 05:10:27;;;;;;;3.90;0.93;;;;;;;15.46;75.29;101623.06;4998967;28;20398;-73
2023/09/05 05:12:54;;;;;;;4.68;0.85;;;;;;;15.46;75.36;101613.41;5000705;28;20046;-73
2023/09/05 05:15:21;;;;;;;7.93;1.65;;;;;;;15.48;75.47;101619.50;4995994;28;20046;-73
2023/09/05 05:17:48;;;;;;;8.07;1.77;;;;;;;15.50;75.37;101614.19;4999319;28;20041;-73
2023/09/05 05:20:14;;;;;;;2.28;0.70;;;;;;;15.52;75.43;101607.13;4996548;28;20049;-74
2023/09/05 05:22:41;;;;;;;1.33;0.60;;;;;;;15.52;75.56;101613.25;5000146;28;20507;-74
2023/09/05 05:25:10;;;;;;;3.85;0.90;;;;;;;15.53;75.53;101609.69;4995780;28;20046;-73
2023/09/05 05:27:36;;;;;;;3.17;0.80;;;;;;;15.53;75.49;101593.03;4997215;28;20045;-73
2023/09/05 05:30:05;;;;;;;4.90;0.70;;;;;;;15.56;75.49;101584.19;4997119;28;20519;-74
2023/09/05 05:32:32;;;;;;;1.00;0.60;;;;;;;15.59;75.68;101576.22;4999657;28;20050;-73
2023/09/05 05:34:59;;;;;;;2.60;0.63;;;;;;;15.60;75.71;101570.06;4998476;28;20046;-73
2023/09/05 05:37:26;;;;;;;1.20;0.80;;;;;;;15.62;75.79;101565.59;4999967;28;20057;-73
2023/09/05 05:39:53;;;;;;;2.38;1.08;;;;;;;15.62;75.79;101560.31;5001195;28;20043;-74
2023/09/05 05:42:21;;;;;;;3.90;0.77;;;;;;;15.66;75.90;101559.34;4994756;28;20049;-73
2023/09/05 05:44:47;;;;;;;2.00;0.60;;;;;;;15.68;75.70;101563.72;4998162;28;20058;-74
2023/09/05 05:47:14;;;;;;;2.88;0.70;;;;;;;15.71;75.86;101565.41;4996943;28;20073;-73
2023/09/05 05:49:41;;;;;;;2.92;0.70;;;;;;;15.74;75.80;101560.91;5001500;28;20419;-74
2023/09/05 05:52:10;;;;;;;2.58;0.88;;;;;;;15.76;76.01;101555.56;5000229;28;20058;-74
2023/09/05 05:54:37;;;;;;;2.80;0.75;;;;;;;15.78;76.05;101553.78;4998461;28;20140;-74
2023/09/05 05:57:05;;;;;;;5.60;0.80;;;;;;;15.81;75.87;101551.06;5002068;28;20137;-75
2023/09/05 05:59:33;;;;;;;3.13;0.75;;;;;;;15.84;75.74;101548.31;5001418;28;20047;-74
2023/09/05 06:01:59;;;;;;;9.13;1.08;;;;;;;15.87;75.65;101555.28;4998779;28;20050;-75
2023/09/05 06:04:26;;;;;;;4.55;0.75;;;;;;;15.83;75.51;101536.06;4998039;28;20054;-74
2023/09/05 06:06:53;;;;;;;2.65;0.70;;;;;;;15.94;75.57;101543.69;5001632;28;20048;-73
2023/09/05 06:09:20;;;;;;;1.50;0.65;;;;;;;15.92;75.52;101534.94;5000353;28;20385;-74
2023/09/05 06:11:47;;;;;;;4.40;0.75;;;;;;;16.00;75.62;101534.75;4996768;28;20076;-74
2023/09/05 06:14:15;;;;;;;3.50;0.85;;;;;;;16.02;75.67;101528.47;4997055;28;20038;-74
2023/09/05 06:16:46;;;;;;;2.97;0.80;;;;;;;16.04;75.66;101520.56;4999431;28;20038;-74
2023/09/05 06:19:14;;;;;;;4.53;0.98;;;;;;;16.07;75.52;101531.00;4998546;28;20096;-75
2023/09/05 06:21:45;;;;;;;2.78;0.60;;;;;;;16.10;75.69;101526.50;5006816;28;20132;-74
2023/09/05 06:24:12;;;;;;;2.08;0.57;;;;;;;16.13;75.50;101531.66;4999463;28;20137;-74
2023/09/05 06:26:41;;;;;;;4.72;1.10;;;;;;;16.16;75.58;101536.00;4997572;28;20053;-74
2023/09/05 06:29:08;;;;;;;3.75;0.68;;;;;;;16.18;75.26;101539.47;5002000;28;20418;-75
2023/09/05 06:31:35;;;;;;;6.28;0.88;;;;;;;16.22;75.29;101553.41;5002482;28;20045;-75
2023/09/05 06:34:03;;;;;;;3.20;1.60;;;;;;;16.24;75.12;101539.28;5000927;28;20042;-75
2023/09/05 06:36:30;;;;;;;4.57;0.60;;;;;;;16.27;75.24;101555.00;4999978;28;20046;-74
2023/09/05 06:38:56;;;;;;;3.47;0.88;;;;;;;16.30;75.23;101548.75;5003905;28;20054;-74
2023/09/05 06:41:23;;;;;;;4.30;0.70;;;;;;;16.33;75.09;101552.16;5000055;28;20045;-75
2023/09/05 06:43:50;;;;;;;6.07;0.80;;;;;;;16.34;74.76;101556.56;5001413;28;20770;-75
2023/09/05 06:46:17;;;;;;;4.45;0.70;;;;;;;16.38;74.97;101545.00;5004361;28;20823;-75
2023/09/05 06:48:44;;;;;;;1.10;0.60;;;;;;;16.41;75.10;101541.41;4997403;28;20625;-75
2023/09/05 06:51:12;;;;;;;3.33;0.80;;;;;;;16.42;74.71;101544.00;5002610;28;20058;-75
2023/09/05 06:53:39;;;;;;;2.85;0.85;;;;;;;16.45;74.53;101555.34;5002326;28;20053;-71
2023/09/05 06:56:06;;;;;;;2.05;0.60;;;;;;;16.48;74.62;101557.88;5005098;28;20046;-71
2023/09/05 06:58:33;;;;;;;5.60;0.50;;;;;;;16.51;74.46;101547.28;5004580;28;20554;-70
2023/09/05 07:01:05;;;;;;;1.17;0.52;;;;;;;16.52;74.31;101538.44;5005045;28;20053;-71
2023/09/05 07:03:32;;;;;;;3.78;0.75;;;;;;;16.56;74.13;101551.50;5002169;28;20081;-71
2023/09/05 07:05:59;;;;;;;1.35;0.60;;;;;;;16.60;74.04;101546.97;5004097;28;20038;-70
2023/09/05 07:08:27;;;;;;;3.95;0.60;;;;;;;16.62;74.36;101547.78;4996128;28;20054;-70
2023/09/05 07:10:54;;;;;;;3.75;1.10;;;;;;;16.67;74.06;101537.94;5004310;28;20393;-71
2023/09/05 07:13:20;;;;;;;1.20;0.60;;;;;;;16.71;73.89;101544.88;5000873;28;20085;-70
2023/09/05 07:15:47;;;;;;;1.20;0.70;;;;;;;16.75;73.89;101557.03;5001305;28;20069;-70
2023/09/05 07:18:14;;;;;;;4.90;0.60;;;;;;;16.80;73.83;101560.44;4999128;28;20050;-71
2023/09/05 07:20:41;;;;;;;5.93;0.77;;;;;;;16.86;73.81;101551.47;5001148;28;20061;-71
2023/09/05 07:23:08;;;;;;;2.17;0.80;;;;;;;16.90;73.74;101549.56;4997098;28;20049;-75
2023/09/05 07:25:39;;;;;;;2.35;0.50;;;;;;;16.97;73.67;101551.13;4999695;28;20059;-75
2023/09/05 07:28:06;;;;;;;13.32;1.55;;;;;;;17.05;73.34;101544.66;5005398;28;20038;-75
2023/09/05 07:30:33;;;;;;;2.67;0.75;;;;;;;17.11;73.13;101543.59;5001912;28;20042;-76
2023/09/05 07:33:00;;;;;;;3.42;0.50;;;;;;;17.18;73.24;101554.81;5003258;28;20053;-76
2023/09/05 07:35:27;;;;;;;1.42;0.60;;;;;;;17.24;72.78;101550.19;5001277;28;20057;-76
2023/09/05 07:37:54;;;;;;;3.03;0.80;;;;;;;17.30;72.96;101546.47;5001676;28;20042;-76
2023/09/05 07:40:22;;;;;;;3.92;0.55;;;;;;;17.38;72.52;101548.84;5005961;28;20042;-75
2023/09/05 07:42:51;;;;;;;4.20;0.75;;;;;;;17.43;72.43;101533.72;5003277;28;20510;-74
2023/09/05 07:45:18;;;;;;;2.58;0.70;;;;;;;17.56;72.61;101544.69;4999381;28;20054;-74
2023/09/05 07:47:44;;;;;;;1.48;0.68;;;;;;;17.63;72.40;101525.94;5001855;28;20046;-75
2023/09/05 07:50:11;;;;;;;2.17;0.70;;;;;;;17.68;72.06;101517.88;4999963;28;20050;-76
2023/09/05 07:52:38;;;;;;;3.85;0.57;;;;;;;17.83;71.84;101506.75;4998518;28;20074;-74
2023/09/05 07:55:06;;;;;;;2.78;0.70;;;;;;;17.93;71.85;101501.97;5004408;28;20046;-75
2023/09/05 07:57:35;;;;;;;3.22;0.60;;;;;;;18.06;71.37;101505.03;5003993;28;20046;-75
2023/09/05 08:00:03;;;;;;;2.90;0.60;;;;;;;18.16;70.80;101503.78;4998674;28;20060;-76
2023/09/05 08:02:30;;;;;;;1.55;0.70;;;;;;;18.29;70.42;101518.22;5016115;22;20057;-75
2023/09/05 08:04:59;;;;;;;6.05;1.80;;;;;;;18.30;70.65;101509.38;5045877;28;20053;-74
2023/09/05 08:07:26;;;;;;;3.00;0.80;;;;;;;18.49;70.33;101522.72;5047852;28;20080;-74
2023/09/05 08:09:53;;;;;;;3.05;0.60;;;;;;;18.59;70.21;101513.50;5044424;28;20687;-74
2023/09/05 08:12:20;;;;;;;3.50;0.60;;;;;;;18.70;69.87;101514.84;5046817;28;20752;-74
2023/09/05 08:14:47;;;;;;;0.80;0.52;;;;;;;18.80;69.47;101519.75;5046580;28;20069;-74
2023/09/05 08:17:15;;;;;;;4.78;0.68;;;;;;;18.91;69.55;101511.38;5044378;28;20048;-74
2023/09/05 08:19:42;;;;;;;1.95;0.50;;;;;;;19.02;68.99;101521.53;5043263;28;20715;-74
2023/09/05 08:22:08;;;;;;;1.40;0.55;;;;;;;19.12;69.08;101514.03;5043608;28;20409;-74
2023/09/05 08:24:35;;;;;;;2.75;1.13;;;;;;;19.20;68.55;101502.19;5039563;28;20045;-74
2023/09/05 08:27:04;;;;;;;5.43;0.80;;;;;;;19.28;68.24;101501.88;5043034;28;20417;-73
2023/09/05 08:29:31;;;;;;;4.00;0.55;;;;;;;19.36;68.02;101505.03;5043088;28;20060;-74
2023/09/05 08:31:59;;;;;;;2.72;0.63;;;;;;;19.43;67.56;101500.31;5046553;28;20498;-74
2023/09/05 08:34:28;;;;;;;4.40;0.52;;;;;;;19.49;67.25;101485.00;5040239;28;20041;-74
2023/09/05 08:36:57;;;;;;;4.50;1.58;;;;;;;19.57;67.05;101495.28;5038047;28;20056;-74
2023/09/05 08:39:24;;;;;;;2.90;1.08;;;;;;;19.62;66.52;101489.78;5042858;28;20049;-80
2023/09/05 08:41:51;;;;;;;4.78;0.60;;;;;;;19.68;66.57;101492.19;5042923;28;20052;-73
2023/09/05 08:44:18;;;;;;;1.90;0.60;;;;;;;19.73;66.61;101496.34;5040759;28;20053;-73
2023/09/05 08:46:46;;;;;;;2.45;0.50;;;;;;;19.78;66.06;101480.25;5043897;28;20040;-74
2023/09/05 08:49:13;;;;;;;5.88;0.60;;;;;;;19.82;66.10;101465.91;5037235;28;20448;-74
2023/09/05 08:51:41;;;;;;;5.68;1.35;;;;;;;19.85;65.74;101465.75;5046174;28;20052;-74
2023/09/05 08:54:13;;;;;;;3.30;0.57;;;;;;;19.89;65.64;101475.28;5039977;28;20049;-74
2023/09/05 08:56:40;;;;;;;1.42;0.57;;;;;;;19.92;65.32;101482.25;5044519;28;20460;-74
2023/09/05 08:59:09;;;;;;;2.15;0.60;;;;;;;19.94;65.42;101491.00;5041910;28;20041;-74
2023/09/05 09:01:38;;;;;;;2.83;0.50;;;;;;;19.93;65.55;101482.19;5040780;28;20050;-74
2023/09/05 09:04:08;;;;;;;2.05;0.50;;;;;;;19.95;65.27;101488.28;5042864;28;20072;-74
2023/09/05 09:06:36;;;;;;;2.50;0.50;;;;;;;19.96;65.02;101489.13;5044180;28;20131;-74
2023/09/05 09:09:05;;;;;;;4.18;0.80;;;;;;;19.98;64.95;101490.78;5044552;28;20064;-74
2023/09/05 09:11:32;;;;;;;1.92;0.50;;;;;;;20.00;64.92;101488.06;5045899;28;20608;-73
2023/09/05 09:14:00;;;;;;;3.92;0.70;;;;;;;20.02;64.48;101482.69;5044556;28;20088;-74
2023/09/05 09:16:27;;;;;;;3.80;0.70;;;;;;;20.04;64.58;101483.50;5038731;28;20045;-74
2023/09/05 09:19:01;;;;;;;2.33;0.50;;;;;;;20.06;64.63;101471.00;5042762;28;20049;-74
2023/09/05 09:21:29;;;;;;;2.42;0.80;;;;;;;20.08;64.51;101477.09;5042983;28;20102;-82
2023/09/05 09:23:59;;;;;;;4.20;0.90;;;;;;;20.10;64.54;101476.09;5043938;28;20052;-74
2023/09/05 09:26:28;;;;;;;5.57;0.60;;;;;;;20.12;64.24;101476.88;5042975;28;20127;-74
2023/09/05 09:28:55;;;;;;;6.00;0.80;;;;;;;20.16;64.29;101481.09;5044461;28;20056;-74
2023/09/05 09:31:26;;;;;;;4.15;0.82;;;;;;;20.19;63.69;101491.56;5044803;28;20092;-74
2023/09/05 09:33:56;;;;;;;8.85;1.10;;;;;;;20.23;63.65;101476.34;5043097;28;20134;-74
2023/09/05 09:36:23;;;;;;;2.88;0.60;;;;;;;20.26;63.73;101480.66;5044541;28;20049;-74
2023/09/05 09:38:51;;;;;;;5.18;0.50;;;;;;;20.30;63.57;101480.44;5043750;28;20506;-74
2023/09/05 09:41:22;;;;;;;5.55;0.80;;;;;;;20.33;63.42;101482.94;5044820;28;20041;-74
2023/09/05 09:43:55;;;;;;;4.30;0.57;;;;;;;20.39;63.54;101471.19;5042032;28;20045;-74
2023/09/05 09:46:22;;;;;;;3.78;0.70;;;;;;;20.42;63.42;101471.88;5042133;28;20084;-74
2023/09/05 09:48:53;;;;;;;2.20;0.50;;;;;;;20.47;63.29;101474.31;5042708;28;20135;-76
2023/09/05 09:51:24;;;;;;;1.95;0.40;;;;;;;20.51;63.16;101467.91;5044784;28;20052;-74
2023/09/05 09:53:52;;;;;;;2.75;0.50;;;;;;;20.55;62.61;101477.50;5041279;28;20041;-74
2023/09/05 09:56:21;;;;;;;3.25;0.85;;;;;;;20.61;62.82;101476.34;5049637;28;20048;-74
2023/09/05 09:58:56;;;;;;;2.08;0.55;;;;;;;20.64;62.64;101477.03;5041100;28;20048;-74
2023/09/05 10:01:24;;;;;;;4.85;0.60;;;;;;;20.63;62.61;101466.50;5044622;28;20079;-74
2023/09/05 10:03:52;;;;;;;3.30;0.50;;;;;;;20.68;62.59;101461.81;5044746;28;20053;-73
2023/09/05 10:06:21;;;;;;;2.65;0.60;;;;;;;20.73;62.99;101473.06;5047094;28;20053;-74
2023/09/05 10:08:49;;;;;;;3.92;0.50;;;;;;;20.78;62.60;101484.34;5046320;28;20037;-74
2023/09/05 10:11:16;;;;;;;3.90;0.60;;;;;;;20.84;62.58;101478.72;5046260;28;20486;-74
2023/09/05 10:13:43;;;;;;;4.50;0.60;;;;;;;20.87;62.73;101483.84;5046229;28;20056;-74
2023/09/05 10:16:12;;;;;;;5.93;0.60;;;;;;;20.91;62.18;101484.56;5046689;28;20055;-74
2023/09/05 10:18:43;;;;;;;2.92;0.50;;;;;;;20.93;61.77;101458.78;5045180;28;20057;-74
2023/09/05 10:21:11;;;;;;;3.17;0.60;;;;;;;20.93;61.66;101458.78;5042329;28;20044;-74
2023/09/05 10:23:40;;;;;;;3.75;0.50;;;;;;;20.93;61.59;101456.13;5043986;28;20048;-74
2023/09/05 10:26:08;;;;;;;1.98;0.60;;;;;;;20.99;61.61;101455.81;5044968;28;20045;-74
2023/09/05 10:28:36;;;;;;;2.35;0.50;;;;;;;21.01;61.54;101458.41;5048020;28;20040;-74
2023/09/05 10:31:12;;;;;;;4.32;0.80;;;;;;;21.03;61.19;101453.84;5048370;28;20135;-75
2023/09/05 10:33:43;;;;;;;2.70;0.50;;;;;;;21.04;61.72;101444.97;5047260;28;20710;-73
2023/09/05 10:36:40;;;;;;;2.70;0.60;;;;;;;21.06;61.65;101435.09;5044284;28;20049;-75
2023/09/05 10:39:18;;;;;;;5.47;1.25;;;;;;;21.07;61.70;101442.16;5044404;28;20413;-74
2023/09/05 10:41:45;;;;;;;2.20;0.63;;;;;;;21.07;61.55;101440.34;5040244;28;20411;-74
2023/09/05 10:44:11;;;;;;;2.33;0.55;;;;;;;21.10;62.06;101439.34;5044908;28;20045;-74
2023/09/05 10:46:40;;;;;;;4.13;0.95;;;;;;;21.09;61.82;101435.81;5048311;28;20049;-75
2023/09/05 10:49:14;;;;;;;2.40;0.47;;;;;;;21.13;61.84;101436.50;5045245;28;20071;-74
2023/09/05 10:52:14;;;;;;;3.80;0.50;;;;;;;21.14;61.80;101440.88;5044713;28;20057;-74
2023/09/05 10:54:41;;;;;;;1.15;0.40;;;;;;;21.14;61.59;101427.59;5044486;28;20053;-75
2023/09/05 10:57:33;;;;;;;3.95;0.75;;;;;;;21.17;61.64;101422.13;5036242;28;20041;-74
2023/09/05 11:00:00;;;;;;;3.63;0.45;;;;;;;21.17;61.12;101418.59;5042363;28;20076;-74
2023/09/05 11:02:27;;;;;;;5.30;0.50;;;;;;;21.18;61.48;101423.84;5044906;28;20057;-75
2023/09/05 11:04:56;;;;;;;2.15;0.60;;;;;;;21.20;61.49;101426.41;5047292;28;20063;-74
2023/09/05 11:07:23;;;;;;;4.30;1.00;;;;;;;21.22;61.40;101413.91;5046639;28;20049;-75
2023/09/05 11:09:54;;;;;;;1.38;0.40;;;;;;;21.24;61.46;101418.22;5042529;28;20053;-75
2023/09/05 11:12:21;;;;;;;1.33;0.57;;;;;;;21.26;61.46;101426.09;5043809;28;20045;-75
2023/09/05 11:14:48;;;;;;;1.63;0.52;;;;;;;21.27;61.44;101418.03;5041288;28;20045;-74
2023/09/05 11:17:17;;;;;;;3.45;0.50;;;;;;;21.30;61.00;101417.03;5046832;28;20478;-75
2023/09/05 11:19:47;;;;;;;2.08;0.40;;;;;;;21.31;61.00;101416.06;5045278;28;20061;-75
2023/09/05 11:22:17;;;;;;;3.63;0.60;;;;;;;21.33;61.12;101412.41;5047420;28;20130;-74
2023/09/05 11:24:47;;;;;;;1.33;0.55;;;;;;;21.36;61.11;101407.88;5041687;28;20052;-74
2023/09/05 11:27:16;;;;;;;2.53;0.60;;;;;;;21.38;61.24;101414.84;5044900;28;20053;-74
2023/09/05 11:29:45;;;;;;;2.35;0.50;;;;;;;21.41;61.13;101411.19;5046789;28;20048;-74